Time;durP1;ratioP1;P1;durP2;ratioP2;P2;SDS_P1;SDS_P2;PMS_P1;PMS_P2;Temp;Humidity;BMP_temperature;BMP_pressure;BME280_temperature;BME280_humidity;BME280_pressure;Samples;Min_cycle;Max_cycle;Signal;HPM_P1;HPM_P2
2024/03/09 00:00:31;;;;;;;3.87;3.47;;;21.80;62.70;;;;;;4982141;28;20483;-66
2024/03/09 00:03:00;;;;;;;3.20;2.80;;;22.10;63.10;;;;;;4979138;28;21763;-67
2024/03/09 00:05:27;;;;;;;3.90;3.50;;;21.80;62.70;;;;;;4982348;28;21211;-68
2024/03/09 00:07:55;;;;;;;4.33;3.10;;;21.80;62.80;;;;;;4976363;28;20467;-68
2024/03/09 00:10:22;;;;;;;3.57;3.27;;;21.80;62.80;;;;;;4973498;28;20913;-68
2024/03/09 00:12:51;;;;;;;3.17;2.87;;;21.80;62.80;;;;;;4976364;28;20816;-69
2024/03/09 00:15:19;;;;;;;3.40;3.10;;;21.80;62.80;;;;;;4974460;28;20464;-70
2024/03/09 00:17:50;;;;;;;3.83;3.50;;;21.80;62.80;;;;;;4980532;28;20460;-70
2024/03/09 00:20:21;;;;;;;3.53;3.00;;;21.90;63.70;;;;;;4966827;28;20676;-67
2024/03/09 00:22:48;;;;;;;3.00;2.67;;;21.80;62.80;;;;;;4981496;28;20471;-67
2024/03/09 00:25:15;;;;;;;4.43;3.20;;;21.80;62.80;;;;;;4981723;28;20464;-69
2024/03/09 00:27:43;;;;;;;3.50;2.80;;;21.80;63.20;;;;;;4968394;28;20517;-70
2024/03/09 00:30:17;;;;;;;3.00;2.70;;;21.50;62.70;;;;;;4981026;28;20196;-70
2024/03/09 00:32:44;;;;;;;3.00;2.70;;;21.80;63.00;;;;;;4985747;28;20460;-69
2024/03/09 00:35:13;;;;;;;2.70;2.50;;;21.70;62.90;;;;;;4979815;28;21002;-70
2024/03/09 00:37:40;;;;;;;3.50;3.20;;;21.70;63.00;;;;;;4971534;28;20662;-69
2024/03/09 00:40:09;;;;;;;3.85;3.13;;;21.40;62.60;;;;;;4974967;28;21003;-69
2024/03/09 00:42:36;;;;;;;2.97;2.77;;;21.70;63.00;;;;;;4983121;28;20673;-69
2024/03/09 00:45:03;;;;;;;4.78;2.83;;;21.70;62.90;;;;;;4974673;28;20621;-69
2024/03/09 00:47:30;;;;;;;3.83;3.53;;;21.70;63.10;;;;;;4979484;28;20209;-69
2024/03/09 00:49:57;;;;;;;3.40;3.10;;;21.70;62.90;;;;;;4979245;28;20462;-69
2024/03/09 00:52:26;;;;;;;3.17;2.87;;;21.70;62.90;;;;;;4981126;28;21011;-69
2024/03/09 00:54:53;;;;;;;4.00;3.43;;;21.70;63.00;;;;;;4979270;28;21062;-69
2024/03/09 00:57:20;;;;;;;3.70;3.10;;;21.40;62.60;;;;;;4982695;28;20464;-69
2024/03/09 00:59:47;;;;;;;4.23;3.47;;;21.40;62.70;;;;;;4973931;28;21206;-69
2024/03/09 01:02:14;;;;;;;6.00;3.93;;;21.60;62.90;;;;;;4981055;28;20467;-69
2024/03/09 01:04:40;;;;;;;3.27;2.67;;;21.40;62.50;;;;;;4987119;28;20466;-69
2024/03/09 01:07:08;;;;;;;3.53;3.20;;;21.60;62.80;;;;;;4976279;28;20464;-69
2024/03/09 01:09:36;;;;;;;4.07;3.00;;;21.30;62.60;;;;;;4986172;28;20860;-69
2024/03/09 01:12:05;;;;;;;2.50;2.30;;;21.60;62.80;;;;;;4987951;28;20976;-69
2024/03/09 01:14:32;;;;;;;3.97;3.05;;;21.60;62.90;;;;;;4984482;28;20483;-69
2024/03/09 01:16:59;;;;;;;3.65;3.35;;;21.50;62.90;;;;;;4981070;28;20204;-69
2024/03/09 01:19:26;;;;;;;3.10;2.80;;;21.60;62.90;;;;;;4981273;28;20315;-70
2024/03/09 01:21:59;;;;;;;3.23;2.93;;;21.30;62.60;;;;;;4984369;28;20467;-69
2024/03/09 01:24:26;;;;;;;3.70;3.10;;;21.50;62.90;;;;;;4987170;28;20464;-69
2024/03/09 01:26:54;;;;;;;3.60;2.65;;;21.50;62.90;;;;;;4987412;28;20497;-69
2024/03/09 01:29:23;;;;;;;3.37;3.07;;;21.50;62.90;;;;;;4982791;28;20211;-69
2024/03/09 01:31:51;;;;;;;2.97;2.78;;;21.90;63.40;;;;;;4987347;28;20463;-69
2024/03/09 01:34:18;;;;;;;3.03;2.72;;;21.50;62.90;;;;;;4980668;28;21438;-69
2024/03/09 01:36:44;;;;;;;2.85;2.55;;;21.50;63.10;;;;;;4982023;28;20201;-69
2024/03/09 01:39:11;;;;;;;3.50;2.80;;;21.30;62.80;;;;;;4977785;28;20237;-69
2024/03/09 01:41:38;;;;;;;3.42;3.03;;;21.50;62.90;;;;;;4983986;28;20203;-69
2024/03/09 01:44:07;;;;;;;3.17;2.70;;;21.50;63.10;;;;;;4983678;28;20205;-69
2024/03/09 01:46:34;;;;;;;4.03;2.70;;;21.50;63.10;;;;;;4983242;28;20709;-69
2024/03/09 01:49:00;;;;;;;3.67;2.75;;;21.60;63.20;;;;;;4982008;28;20192;-69
2024/03/09 01:51:27;;;;;;;3.20;2.80;;;21.70;64.20;;;;;;4978486;28;20201;-69
2024/03/09 01:53:54;;;;;;;2.53;2.33;;;21.40;63.00;;;;;;4982953;28;20456;-69
2024/03/09 01:56:23;;;;;;;4.30;3.28;;;21.40;63.00;;;;;;4978123;28;20957;-69
2024/03/09 01:58:50;;;;;;;3.90;2.87;;;21.40;63.90;;;;;;4976895;28;20204;-69
2024/03/09 02:01:24;;;;;;;3.55;3.00;;;21.40;63.00;;;;;;4976647;28;20473;-69
2024/03/09 02:03:53;;;;;;;4.45;3.20;;;21.60;63.30;;;;;;4983934;28;20197;-69
2024/03/09 02:06:23;;;;;;;3.72;2.85;;;21.40;63.00;;;;;;4982148;28;20207;-69
2024/03/09 02:08:51;;;;;;;3.03;2.72;;;21.40;63.10;;;;;;4977845;28;20204;-69
2024/03/09 02:11:18;;;;;;;2.95;2.53;;;21.30;63.80;;;;;;4985424;28;20628;-69
2024/03/09 02:13:46;;;;;;;2.65;2.45;;;21.30;63.10;;;;;;4987222;28;20212;-69
2024/03/09 02:16:13;;;;;;;2.97;2.78;;;21.30;64.10;;;;;;4984107;28;20324;-69
2024/03/09 02:18:44;;;;;;;2.95;2.63;;;21.30;63.10;;;;;;4982034;28;20287;-69
2024/03/09 02:21:12;;;;;;;3.05;2.75;;;21.30;63.10;;;;;;4976751;28;20219;-69
2024/03/09 02:23:39;;;;;;;3.25;2.97;;;21.20;63.10;;;;;;4975293;28;20189;-69
2024/03/09 02:26:07;;;;;;;3.00;2.80;;;21.30;63.20;;;;;;4983558;28;20285;-69
2024/03/09 02:28:34;;;;;;;4.50;3.22;;;21.20;63.10;;;;;;4977611;28;20201;-69
2024/03/09 02:31:01;;;;;;;3.65;3.05;;;21.30;63.30;;;;;;4992939;28;20817;-69
2024/03/09 02:33:28;;;;;;;2.35;2.10;;;21.30;63.40;;;;;;4993515;28;20196;-70
2024/03/09 02:35:55;;;;;;;5.45;3.17;;;21.30;63.80;;;;;;4986188;28;20193;-69
2024/03/09 02:38:23;;;;;;;3.35;3.05;;;21.20;63.60;;;;;;4979979;28;20785;-69
2024/03/09 02:40:49;;;;;;;3.33;3.03;;;21.20;63.20;;;;;;4987117;28;20804;-69
2024/03/09 02:43:18;;;;;;;2.97;2.40;;;21.20;63.30;;;;;;4978744;28;20331;-69
2024/03/09 02:45:45;;;;;;;4.80;2.97;;;21.10;63.20;;;;;;4986793;28;20236;-69
2024/03/09 02:48:12;;;;;;;4.22;2.80;;;21.20;63.40;;;;;;4977369;28;20196;-69
2024/03/09 02:50:40;;;;;;;3.10;2.80;;;21.20;63.30;;;;;;4984728;28;20671;-69
2024/03/09 02:53:07;;;;;;;3.58;3.05;;;21.20;63.40;;;;;;4985772;28;20201;-69
2024/03/09 02:55:35;;;;;;;3.00;2.72;;;21.20;63.40;;;;;;4985682;28;20869;-69
2024/03/09 02:58:01;;;;;;;3.00;2.58;;;21.10;63.30;;;;;;4980213;28;20212;-69
2024/03/09 03:00:31;;;;;;;3.20;2.88;;;21.10;63.40;;;;;;4981255;28;20231;-69
2024/03/09 03:05:43;;;;;;;3.05;2.85;;;21.10;63.40;;;;;;4973401;28;20220;-69
2024/03/09 03:08:11;;;;;;;2.83;2.50;;;21.10;63.50;;;;;;4978791;28;20201;-70
2024/03/09 03:10:40;;;;;;;3.88;2.90;;;21.10;63.50;;;;;;4977711;28;20207;-69
2024/03/09 03:13:08;;;;;;;2.60;2.40;;;21.10;63.50;;;;;;4979886;28;20216;-69
2024/03/09 03:15:37;;;;;;;2.28;2.08;;;21.20;63.60;;;;;;4979803;28;20193;-69
2024/03/09 03:18:08;;;;;;;2.88;2.58;;;21.30;63.70;;;;;;4976835;28;20205;-69
2024/03/09 03:20:35;;;;;;;2.88;2.67;;;21.10;63.60;;;;;;4978162;28;20220;-69
2024/03/09 03:23:03;;;;;;;3.08;2.83;;;21.10;63.60;;;;;;4983374;28;20207;-69
2024/03/09 03:25:30;;;;;;;3.00;2.70;;;20.80;63.30;;;;;;4988394;28;20201;-69
2024/03/09 03:27:57;;;;;;;2.35;2.15;;;21.10;63.60;;;;;;4985501;28;20208;-69
2024/03/09 03:30:25;;;;;;;3.35;2.88;;;21.00;63.50;;;;;;4979066;28;20235;-69
2024/03/09 03:32:54;;;;;;;3.05;2.75;;;21.00;63.50;;;;;;4980572;28;20207;-69
2024/03/09 03:35:24;;;;;;;3.40;3.10;;;21.00;63.50;;;;;;4981750;28;20206;-69
2024/03/09 03:37:52;;;;;;;3.33;3.03;;;21.00;63.60;;;;;;4983279;28;20634;-69
2024/03/09 03:40:19;;;;;;;3.20;2.92;;;21.00;63.60;;;;;;4985356;28;20221;-69
2024/03/09 03:42:46;;;;;;;3.30;3.00;;;21.00;63.60;;;;;;4976067;28;20676;-69
2024/03/09 03:45:15;;;;;;;2.75;2.55;;;21.10;63.80;;;;;;4984631;28;20752;-69
2024/03/09 03:47:41;;;;;;;2.90;2.70;;;21.00;63.70;;;;;;4984334;28;20352;-69
2024/03/09 03:50:10;;;;;;;2.95;2.75;;;21.00;63.70;;;;;;4981688;28;20599;-69
2024/03/09 03:52:40;;;;;;;3.97;2.60;;;21.00;63.70;;;;;;4982839;28;20212;-69
2024/03/09 03:55:11;;;;;;;3.00;2.80;;;21.00;63.70;;;;;;4985057;28;20196;-69
2024/03/09 03:57:40;;;;;;;3.00;2.72;;;20.80;63.50;;;;;;4984505;28;20583;-69
2024/03/09 04:00:09;;;;;;;3.20;2.90;;;20.90;63.70;;;;;;4984608;28;20213;-69
2024/03/09 04:02:37;;;;;;;3.25;2.85;;;21.00;63.80;;;;;;4975486;28;20285;-69
2024/03/09 04:05:04;;;;;;;2.30;2.10;;;21.00;63.80;;;;;;4987416;28;20201;-69
2024/03/09 04:07:32;;;;;;;2.88;2.67;;;20.90;63.70;;;;;;4978174;28;20204;-69
2024/03/09 04:10:01;;;;;;;2.30;2.10;;;20.90;63.80;;;;;;4985626;28;20212;-69
2024/03/09 04:12:28;;;;;;;2.97;2.67;;;20.90;63.80;;;;;;4987180;28;20259;-69
2024/03/09 04:14:57;;;;;;;2.13;1.92;;;20.90;63.80;;;;;;4986457;28;20205;-69
2024/03/09 04:17:24;;;;;;;2.60;2.40;;;20.90;63.90;;;;;;4987184;28;20235;-69
2024/03/09 04:19:50;;;;;;;2.70;2.50;;;20.90;64.00;;;;;;4986822;28;20243;-69
2024/03/09 04:22:18;;;;;;;3.25;2.95;;;20.90;63.80;;;;;;4988432;28;20200;-69
2024/03/09 04:24:46;;;;;;;3.40;1.95;;;21.20;64.20;;;;;;4985622;28;20200;-69
2024/03/09 04:27:13;;;;;;;2.67;2.38;;;20.90;63.90;;;;;;4987031;28;20215;-69
2024/03/09 04:29:40;;;;;;;3.10;2.80;;;20.90;64.10;;;;;;4983852;28;20208;-69
2024/03/09 04:32:08;;;;;;;2.97;2.67;;;20.90;63.90;;;;;;4990725;28;20637;-69
2024/03/09 04:34:38;;;;;;;3.00;2.63;;;20.90;63.90;;;;;;4987507;28;20388;-69
2024/03/09 04:37:06;;;;;;;3.22;2.92;;;20.90;63.90;;;;;;4985421;28;20629;-68
2024/03/09 04:39:38;;;;;;;2.67;2.25;;;20.70;63.70;;;;;;4986705;28;20201;-69
2024/03/09 04:42:07;;;;;;;3.03;2.72;;;20.90;64.00;;;;;;4983189;28;20205;-69
2024/03/09 04:44:33;;;;;;;2.35;2.13;;;20.90;63.90;;;;;;4985086;28;20205;-69
2024/03/09 04:47:01;;;;;;;2.85;2.65;;;20.80;63.90;;;;;;4979136;28;20197;-68
2024/03/09 04:49:29;;;;;;;2.95;2.50;;;20.60;63.70;;;;;;4976430;28;20201;-69
2024/03/09 04:51:57;;;;;;;2.53;2.33;;;20.80;63.90;;;;;;4985372;28;20471;-69
2024/03/09 04:54:24;;;;;;;2.92;2.60;;;20.80;64.00;;;;;;4987959;28;20928;-68
2024/03/09 04:56:51;;;;;;;3.20;2.90;;;20.50;63.70;;;;;;4980440;28;20569;-69
2024/03/09 04:59:19;;;;;;;3.20;2.80;;;20.80;64.00;;;;;;4982175;28;20657;-68
2024/03/09 05:01:46;;;;;;;2.47;2.20;;;20.80;64.00;;;;;;4978637;28;20624;-68
2024/03/09 05:04:14;;;;;;;3.03;2.80;;;20.80;64.00;;;;;;4978523;28;20554;-68
2024/03/09 05:06:41;;;;;;;3.05;2.78;;;20.80;64.00;;;;;;4979791;28;20196;-69
2024/03/09 05:09:09;;;;;;;3.55;3.08;;;20.80;64.10;;;;;;4979497;28;20193;-68
2024/03/09 05:11:35;;;;;;;2.92;2.63;;;20.90;64.20;;;;;;4982866;28;20197;-68
2024/03/09 05:14:02;;;;;;;3.10;2.65;;;20.80;64.00;;;;;;4984877;28;20197;-69
2024/03/09 05:16:30;;;;;;;2.72;2.45;;;20.70;64.00;;;;;;4980473;28;20208;-69
2024/03/09 05:18:58;;;;;;;3.88;2.90;;;20.80;64.80;;;;;;4981953;28;20229;-69
2024/03/09 05:21:25;;;;;;;2.22;1.90;;;20.80;64.10;;;;;;4985460;28;20221;-69
2024/03/09 05:23:52;;;;;;;2.42;2.22;;;20.80;64.20;;;;;;4990796;28;20307;-68
2024/03/09 05:26:19;;;;;;;2.83;2.55;;;20.80;64.20;;;;;;4989260;28;20322;-68
2024/03/09 05:28:45;;;;;;;2.50;2.30;;;20.90;64.30;;;;;;4988817;28;20189;-68
2024/03/09 05:31:25;;;;;;;3.20;2.80;;;20.80;64.20;;;;;;4979411;28;20616;-69
2024/03/09 05:33:53;;;;;;;2.40;2.03;;;20.70;64.10;;;;;;4985287;28;20215;-68
2024/03/09 05:36:20;;;;;;;2.20;2.00;;;20.70;64.00;;;;;;4989370;28;20201;-68
2024/03/09 05:38:49;;;;;;;4.35;2.65;;;21.00;64.40;;;;;;4982945;28;20211;-68
2024/03/09 05:41:16;;;;;;;3.13;2.53;;;20.70;64.10;;;;;;4988050;28;20227;-68
2024/03/09 05:43:44;;;;;;;2.42;2.22;;;20.60;64.00;;;;;;4983900;28;20661;-68
2024/03/09 05:46:14;;;;;;;3.55;2.38;;;20.70;64.00;;;;;;4982930;28;20732;-69
2024/03/09 05:48:42;;;;;;;3.70;2.60;;;20.70;64.10;;;;;;4982629;28;20201;-68
2024/03/09 05:51:11;;;;;;;2.92;2.70;;;20.70;64.20;;;;;;4987668;28;20259;-68
2024/03/09 05:53:38;;;;;;;3.25;2.40;;;20.70;64.10;;;;;;4982091;28;20669;-69
2024/03/09 05:56:05;;;;;;;3.25;2.95;;;20.70;64.50;;;;;;4978757;28;20251;-69
2024/03/09 05:58:32;;;;;;;3.42;2.78;;;20.70;64.20;;;;;;4984038;28;20200;-68
2024/03/09 06:00:59;;;;;;;3.35;2.65;;;20.70;64.20;;;;;;4981612;28;20220;-69
2024/03/09 06:03:26;;;;;;;3.17;2.45;;;20.70;64.30;;;;;;4983570;28;20192;-68
2024/03/09 06:05:53;;;;;;;3.00;2.70;;;20.70;64.20;;;;;;4984792;28;20656;-68
2024/03/09 06:08:22;;;;;;;2.40;2.20;;;20.70;64.20;;;;;;4984499;28;20204;-68
2024/03/09 06:10:49;;;;;;;3.92;2.75;;;20.30;63.70;;;;;;4983145;28;20233;-68
2024/03/09 06:13:17;;;;;;;3.13;2.83;;;20.40;63.90;;;;;;4985598;28;20296;-69
2024/03/09 06:15:45;;;;;;;4.10;2.58;;;20.70;64.20;;;;;;4981344;28;20220;-68
2024/03/09 06:18:12;;;;;;;2.60;2.40;;;20.60;64.10;;;;;;4984505;28;20496;-68
2024/03/09 06:20:41;;;;;;;4.13;2.88;;;20.70;64.30;;;;;;4982040;28;20223;-69
2024/03/09 06:23:08;;;;;;;2.88;2.33;;;20.70;64.20;;;;;;4979561;28;20205;-68
2024/03/09 06:25:36;;;;;;;3.45;2.63;;;20.70;64.30;;;;;;4984256;28;20206;-69
2024/03/09 06:28:05;;;;;;;2.38;2.13;;;20.40;63.90;;;;;;4986075;28;20201;-69
2024/03/09 06:30:32;;;;;;;3.35;3.05;;;20.60;64.10;;;;;;4980363;28;20657;-68
2024/03/09 06:32:59;;;;;;;3.22;2.72;;;20.60;64.20;;;;;;4984101;28;20204;-69
2024/03/09 06:35:26;;;;;;;2.38;2.00;;;20.60;64.10;;;;;;4976107;28;20204;-68
2024/03/09 06:37:58;;;;;;;3.28;3.00;;;20.40;63.90;;;;;;4982309;28;20200;-68
2024/03/09 06:40:25;;;;;;;2.88;2.53;;;20.60;64.10;;;;;;4982939;28;20258;-68
2024/03/09 06:42:57;;;;;;;3.00;2.70;;;20.40;64.00;;;;;;4982995;28;20208;-68
2024/03/09 06:45:24;;;;;;;3.25;2.95;;;20.60;64.20;;;;;;4976123;28;20205;-68
2024/03/09 06:47:51;;;;;;;2.72;2.53;;;20.60;64.20;;;;;;4974573;28;20196;-68
2024/03/09 06:50:18;;;;;;;3.17;2.53;;;20.80;64.50;;;;;;4976502;28;20300;-68
2024/03/09 06:52:46;;;;;;;2.58;2.38;;;20.60;64.20;;;;;;4974024;28;20308;-69
2024/03/09 06:55:14;;;;;;;2.65;2.25;;;20.70;64.30;;;;;;4979248;28;20249;-68
2024/03/09 06:57:41;;;;;;;2.97;2.78;;;20.60;64.10;;;;;;4981974;28;20636;-69
2024/03/09 07:00:14;;;;;;;2.60;2.40;;;20.70;64.30;;;;;;4984810;28;20549;-69
2024/03/09 07:02:41;;;;;;;4.05;2.15;;;20.60;64.20;;;;;;4984198;28;20239;-68
2024/03/09 07:05:09;;;;;;;2.42;2.22;;;20.60;64.10;;;;;;4985173;28;20206;-68
2024/03/09 07:07:36;;;;;;;2.83;2.55;;;20.60;64.20;;;;;;4981459;28;20617;-68
2024/03/09 07:10:07;;;;;;;2.50;2.15;;;20.60;64.10;;;;;;4990295;28;20335;-69
2024/03/09 07:12:37;;;;;;;2.70;2.50;;;20.60;64.20;;;;;;4986340;28;20205;-68
2024/03/09 07:15:06;;;;;;;4.07;2.70;;;20.60;64.50;;;;;;4980722;28;20946;-68
2024/03/09 07:17:35;;;;;;;2.83;2.45;;;20.60;64.20;;;;;;4990164;28;20192;-68
2024/03/09 07:20:10;;;;;;;2.40;2.20;;;20.50;64.10;;;;;;4986744;28;20200;-68
2024/03/09 07:22:39;;;;;;;2.97;2.78;;;20.40;64.30;;;;;;4986859;28;21349;-68
2024/03/09 07:25:07;;;;;;;2.95;2.70;;;20.80;64.40;;;;;;4993198;28;20227;-68
2024/03/09 07:27:34;;;;;;;3.00;2.75;;;20.50;64.10;;;;;;4987599;28;20197;-68
2024/03/09 07:30:03;;;;;;;2.83;2.63;;;20.50;64.10;;;;;;4980420;28;20192;-68
2024/03/09 07:32:31;;;;;;;2.60;2.28;;;20.50;64.00;;;;;;4987390;28;20533;-68
2024/03/09 07:34:59;;;;;;;3.08;2.78;;;20.20;63.90;;;;;;4988139;28;20219;-68
2024/03/09 07:37:26;;;;;;;3.30;3.00;;;20.20;63.90;;;;;;4983206;28;20588;-68
2024/03/09 07:39:54;;;;;;;2.80;2.60;;;20.50;64.30;;;;;;4990278;28;20204;-69
2024/03/09 07:42:20;;;;;;;3.10;2.80;;;20.50;64.30;;;;;;4991625;28;20880;-71
2024/03/09 07:44:47;;;;;;;3.17;2.90;;;20.80;64.80;;;;;;4987069;28;20204;-68
2024/03/09 07:47:14;;;;;;;3.13;2.83;;;20.40;64.20;;;;;;4984174;28;20204;-71
2024/03/09 07:49:40;;;;;;;2.22;2.03;;;20.60;64.50;;;;;;4991350;28;20541;-69
2024/03/09 07:52:09;;;;;;;3.03;2.53;;;20.60;64.50;;;;;;4986819;28;20520;-68
2024/03/09 07:54:36;;;;;;;3.97;2.97;;;20.60;64.50;;;;;;4985302;28;20197;-68
2024/03/09 07:57:04;;;;;;;2.35;2.15;;;20.60;64.50;;;;;;4986491;28;20204;-68
2024/03/09 07:59:30;;;;;;;2.80;2.35;;;20.60;64.50;;;;;;4988679;28;20204;-68
2024/03/09 08:01:58;;;;;;;2.42;2.22;;;20.60;64.50;;;;;;4981432;28;20795;-68
2024/03/09 08:04:26;;;;;;;3.67;2.70;;;20.60;64.70;;;;;;4985290;28;20319;-67
2024/03/09 08:06:54;;;;;;;2.25;2.05;;;20.70;64.80;;;;;;4973072;28;20296;-67
2024/03/09 08:09:22;;;;;;;2.47;2.28;;;20.70;64.80;;;;;;4996230;28;20663;-68
2024/03/09 08:11:50;;;;;;;2.15;1.98;;;20.70;64.80;;;;;;4992705;28;20216;-66
2024/03/09 08:14:18;;;;;;;3.10;2.30;;;20.90;64.90;;;;;;4982527;28;20213;-69
2024/03/09 08:16:45;;;;;;;2.40;2.20;;;20.70;64.70;;;;;;4985882;28;20199;-66
2024/03/09 08:19:13;;;;;;;2.55;2.35;;;20.70;64.60;;;;;;4982201;28;20204;-68
2024/03/09 08:21:39;;;;;;;2.35;2.05;;;20.60;64.50;;;;;;4982634;28;20225;-67
2024/03/09 08:24:07;;;;;;;2.58;2.38;;;20.70;64.60;;;;;;4988694;28;20657;-68
2024/03/09 08:26:35;;;;;;;2.10;2.00;;;20.70;64.70;;;;;;4980639;28;20197;-67
2024/03/09 08:29:02;;;;;;;2.90;2.50;;;20.80;64.90;;;;;;4974129;28;20239;-68
2024/03/09 08:31:28;;;;;;;2.95;2.65;;;20.70;64.80;;;;;;4978575;28;20472;-67
2024/03/09 08:33:55;;;;;;;2.45;2.25;;;21.00;65.00;;;;;;4983623;28;21070;-68
2024/03/09 08:36:23;;;;;;;2.50;2.30;;;20.70;65.80;;;;;;4980628;28;20201;-68
2024/03/09 08:38:52;;;;;;;2.20;1.63;;;20.70;64.80;;;;;;4982255;28;20204;-69
2024/03/09 08:41:21;;;;;;;2.75;2.38;;;20.70;64.90;;;;;;4979295;28;20237;-70
2024/03/09 08:43:49;;;;;;;2.33;2.13;;;20.70;64.80;;;;;;4974686;28;20249;-70
2024/03/09 08:46:17;;;;;;;2.40;1.88;;;20.70;64.80;;;;;;4975231;28;20720;-68
2024/03/09 08:48:44;;;;;;;2.05;1.85;;;20.60;64.70;;;;;;4975661;28;20592;-69
2024/03/09 08:51:11;;;;;;;2.63;2.15;;;20.70;65.00;;;;;;4972301;28;20681;-63
2024/03/09 08:53:38;;;;;;;3.50;2.20;;;20.70;65.10;;;;;;4968129;28;20549;-72
2024/03/09 08:56:05;;;;;;;4.25;2.78;;;20.80;65.40;;;;;;4973692;28;20212;-70
2024/03/09 08:58:34;;;;;;;4.80;2.50;;;20.70;65.20;;;;;;4973729;28;20744;-68
2024/03/09 09:01:04;;;;;;;2.60;2.40;;;20.70;65.30;;;;;;4973979;28;20216;-69
2024/03/09 09:03:31;;;;;;;2.40;2.20;;;20.80;65.50;;;;;;4967764;28;20732;-69
2024/03/09 09:05:57;;;;;;;5.70;1.80;;;20.50;65.30;;;;;;4968142;28;20658;-69
2024/03/09 09:08:25;;;;;;;2.15;1.83;;;20.70;65.60;;;;;;4968817;28;20201;-68
2024/03/09 09:10:53;;;;;;;2.25;1.70;;;20.80;65.60;;;;;;4970679;28;20205;-69
2024/03/09 09:13:21;;;;;;;2.60;2.25;;;20.90;65.70;;;;;;4976072;28;20557;-69
2024/03/09 09:15:48;;;;;;;2.20;1.95;;;20.70;65.50;;;;;;4975854;28;20193;-69
2024/03/09 09:18:16;;;;;;;2.50;2.25;;;20.70;65.40;;;;;;4970014;28;20701;-68
2024/03/09 09:20:45;;;;;;;8.48;2.10;;;20.70;65.40;;;;;;4981742;28;20205;-69
2024/03/09 09:23:12;;;;;;;3.30;2.80;;;20.70;65.40;;;;;;4971807;28;20243;-69
2024/03/09 09:25:39;;;;;;;2.40;2.20;;;20.80;65.40;;;;;;4976274;28;20205;-69
2024/03/09 09:28:08;;;;;;;2.35;2.05;;;20.80;65.40;;;;;;4977275;28;20224;-69
2024/03/09 09:30:34;;;;;;;2.00;1.80;;;20.80;66.20;;;;;;4974349;28;20201;-69
2024/03/09 09:33:01;;;;;;;3.20;2.50;;;20.80;65.40;;;;;;4979273;28;20644;-69
2024/03/09 09:35:29;;;;;;;2.38;2.17;;;20.80;65.40;;;;;;4970023;28;20204;-69
2024/03/09 09:37:57;;;;;;;2.60;2.40;;;20.80;65.40;;;;;;4980599;28;20205;-68
2024/03/09 09:40:24;;;;;;;2.38;2.05;;;20.80;65.30;;;;;;4984237;28;20203;-68
2024/03/09 09:42:52;;;;;;;2.95;2.38;;;20.80;65.30;;;;;;4987202;28;20588;-69
2024/03/09 09:45:22;;;;;;;2.22;2.03;;;20.80;65.30;;;;;;4978688;28;20204;-69
2024/03/09 09:47:49;;;;;;;2.50;2.28;;;20.80;65.30;;;;;;4976265;28;20204;-69
2024/03/09 09:50:18;;;;;;;2.45;2.25;;;20.80;65.30;;;;;;4979359;28;20207;-69
2024/03/09 09:52:48;;;;;;;2.45;2.03;;;20.80;65.20;;;;;;4966845;28;20207;-69
2024/03/09 09:55:16;;;;;;;2.72;2.40;;;20.80;65.20;;;;;;4978569;28;20645;-69
2024/03/09 09:57:46;;;;;;;3.20;2.60;;;20.80;65.20;;;;;;4980907;28;20930;-69
2024/03/09 10:00:13;;;;;;;2.53;2.33;;;20.90;65.30;;;;;;4977777;28;20350;-68
2024/03/09 10:02:40;;;;;;;2.47;2.25;;;20.80;65.10;;;;;;4982960;28;20799;-68
2024/03/09 10:05:12;;;;;;;2.25;2.00;;;20.80;65.20;;;;;;4981742;28;20209;-68
2024/03/09 10:07:43;;;;;;;2.65;2.45;;;20.80;65.20;;;;;;4983915;28;20197;-68
2024/03/09 10:10:19;;;;;;;2.85;2.38;;;20.80;65.20;;;;;;4986505;28;20680;-68
2024/03/09 10:12:45;;;;;;;2.90;2.45;;;20.80;65.20;;;;;;4983942;28;20207;-68
2024/03/09 10:15:14;;;;;;;3.15;2.92;;;20.80;65.10;;;;;;4980239;28;20284;-68
2024/03/09 10:17:43;;;;;;;2.60;2.17;;;20.80;65.00;;;;;;4980861;28;20208;-68
2024/03/09 10:20:13;;;;;;;2.15;1.95;;;20.80;65.00;;;;;;4975845;28;20673;-69
2024/03/09 10:22:42;;;;;;;3.05;2.75;;;20.80;65.00;;;;;;4978948;28;20271;-71
2024/03/09 10:25:09;;;;;;;2.75;2.50;;;20.80;64.90;;;;;;4990771;28;20827;-66
2024/03/09 10:27:38;;;;;;;3.15;2.95;;;20.80;65.00;;;;;;4988809;28;20622;-65
2024/03/09 10:30:10;;;;;;;2.35;2.10;;;20.80;65.20;;;;;;4981497;28;20625;-65
2024/03/09 10:32:41;;;;;;;2.80;2.45;;;20.80;65.40;;;;;;4983203;28;20189;-67
2024/03/09 10:35:09;;;;;;;2.78;2.35;;;20.80;65.40;;;;;;4979130;28;20204;-65
2024/03/09 10:37:38;;;;;;;2.88;2.40;;;20.80;65.40;;;;;;4972671;28;20777;-68
2024/03/09 10:40:12;;;;;;;3.40;2.55;;;20.80;65.40;;;;;;4979722;28;21364;-69
2024/03/09 10:42:43;;;;;;;2.45;2.25;;;20.80;65.60;;;;;;4974296;28;20223;-69
2024/03/09 10:45:14;;;;;;;2.70;2.50;;;20.80;65.70;;;;;;4977017;28;20681;-68
2024/03/09 10:47:47;;;;;;;2.80;2.55;;;20.80;65.60;;;;;;4983261;28;20284;-73
2024/03/09 10:50:19;;;;;;;2.80;2.08;;;20.60;65.40;;;;;;4987964;28;20200;-69
2024/03/09 10:52:51;;;;;;;2.90;2.60;;;20.80;65.60;;;;;;4982240;28;21202;-67
2024/03/09 10:55:24;;;;;;;3.45;2.25;;;20.80;65.50;;;;;;4980908;28;20838;-67
2024/03/09 10:57:53;;;;;;;2.60;2.05;;;20.80;65.50;;;;;;4977078;28;20192;-68
2024/03/09 11:00:28;;;;;;;4.15;2.47;;;20.80;65.50;;;;;;4975241;28;20281;-69
2024/03/09 11:02:56;;;;;;;2.80;2.28;;;20.80;65.50;;;;;;4972992;28;20321;-68
2024/03/09 11:05:23;;;;;;;5.60;2.70;;;20.80;65.50;;;;;;4972724;28;20201;-71
2024/03/09 11:07:52;;;;;;;2.78;2.15;;;20.80;65.40;;;;;;4967099;28;20777;-72
2024/03/09 11:10:22;;;;;;;6.15;1.95;;;20.80;65.60;;;;;;4978622;28;20200;-69
2024/03/09 11:12:49;;;;;;;5.10;2.78;;;20.80;65.60;;;;;;4968136;28;20196;-68
2024/03/09 11:15:21;;;;;;;2.40;2.20;;;20.80;65.50;;;;;;4978228;28;20204;-68
2024/03/09 11:17:49;;;;;;;2.53;2.20;;;20.80;65.60;;;;;;4969299;28;20204;-67
2024/03/09 11:20:21;;;;;;;3.50;2.55;;;20.50;65.30;;;;;;4978023;28;20197;-68
2024/03/09 11:22:48;;;;;;;3.97;2.72;;;20.60;65.70;;;;;;4970797;28;20224;-72
2024/03/09 11:25:15;;;;;;;2.65;2.45;;;20.80;66.00;;;;;;4968073;28;20653;-69
2024/03/09 11:27:43;;;;;;;2.72;2.40;;;20.90;66.40;;;;;;4967125;28;20201;-68
2024/03/09 11:30:13;;;;;;;2.88;2.15;;;20.90;66.50;;;;;;4977697;28;20193;-73
2024/03/09 11:32:41;;;;;;;3.42;2.90;;;20.90;66.60;;;;;;4974594;28;20208;-73
2024/03/09 11:35:27;;;;;;;4.30;3.90;;;20.80;66.70;;;;;;4971603;28;20204;-71
2024/03/09 11:37:56;;;;;;;6.45;2.63;;;20.90;67.00;;;;;;4973445;28;20655;-70
2024/03/09 11:40:24;;;;;;;2.17;1.98;;;21.10;67.30;;;;;;4984687;28;20268;-73
2024/03/09 11:43:00;;;;;;;3.17;2.80;;;21.00;67.10;;;;;;4991262;28;20295;-75
2024/03/09 11:45:29;;;;;;;4.35;3.00;;;20.80;67.10;;;;;;4978510;28;20323;-75
2024/03/09 11:47:57;;;;;;;2.58;2.38;;;21.00;67.40;;;;;;4988087;28;20601;-74
2024/03/09 11:50:25;;;;;;;2.20;2.00;;;21.00;67.50;;;;;;4994811;28;20196;-74
2024/03/09 11:52:53;;;;;;;2.65;2.45;;;21.00;67.50;;;;;;4987185;28;20331;-72
2024/03/09 11:55:21;;;;;;;2.67;2.20;;;21.00;67.50;;;;;;4984438;28;20208;-69
2024/03/09 11:57:48;;;;;;;3.08;2.78;;;21.00;67.50;;;;;;4984432;28;20287;-71
2024/03/09 12:00:15;;;;;;;2.33;2.13;;;21.20;67.50;;;;;;4980358;28;20203;-70
2024/03/09 12:02:42;;;;;;;2.92;2.50;;;21.10;67.40;;;;;;4975367;28;20220;-73
2024/03/09 12:05:15;;;;;;;2.60;2.40;;;21.20;67.30;;;;;;4984705;28;20205;-73
2024/03/09 12:07:43;;;;;;;3.47;2.23;;;21.20;67.50;;;;;;4979257;28;20645;-74
2024/03/09 12:10:13;;;;;;;3.80;2.45;;;21.20;67.40;;;;;;4985592;28;20463;-69
2024/03/09 12:12:41;;;;;;;2.70;2.07;;;21.20;67.40;;;;;;4983701;28;20212;-69
2024/03/09 12:15:10;;;;;;;2.10;1.70;;;21.30;67.30;;;;;;4988664;28;20468;-71
2024/03/09 12:17:38;;;;;;;2.78;2.15;;;21.30;67.30;;;;;;4989824;28;20201;-71
2024/03/09 12:20:06;;;;;;;3.35;3.05;;;21.30;67.30;;;;;;4988206;28;20700;-67
2024/03/09 12:22:35;;;;;;;2.58;2.38;;;21.30;67.10;;;;;;4989925;28;20895;-68
2024/03/09 12:25:03;;;;;;;3.10;2.38;;;21.10;66.80;;;;;;4993855;28;20200;-68
2024/03/09 12:27:30;;;;;;;3.03;2.50;;;21.20;66.90;;;;;;4987450;28;20193;-68
2024/03/09 12:29:57;;;;;;;2.30;2.10;;;21.40;67.10;;;;;;4985738;28;20463;-67
2024/03/09 12:32:26;;;;;;;2.80;2.30;;;21.40;67.10;;;;;;4986907;28;20764;-68
2024/03/09 12:34:54;;;;;;;2.70;2.50;;;21.40;67.20;;;;;;4983147;28;20468;-70
2024/03/09 12:37:27;;;;;;;2.73;2.53;;;21.40;68.00;;;;;;4987610;28;20459;-68
2024/03/09 12:40:11;;;;;;;3.20;2.90;;;21.40;67.30;;;;;;4983637;28;20535;-69
2024/03/09 12:42:42;;;;;;;2.40;2.20;;;21.40;67.20;;;;;;4984329;28;20550;-68
2024/03/09 12:45:10;;;;;;;2.63;2.28;;;21.40;67.30;;;;;;4985062;28;20193;-68
2024/03/09 12:47:42;;;;;;;4.82;2.70;;;21.30;67.00;;;;;;4987576;28;20656;-68
2024/03/09 12:50:09;;;;;;;2.53;2.33;;;21.30;67.00;;;;;;4985007;28;20759;-68
2024/03/09 12:52:36;;;;;;;1.80;1.70;;;21.30;66.90;;;;;;4984799;28;20538;-68
2024/03/09 12:55:08;;;;;;;2.50;2.25;;;21.30;66.90;;;;;;4987378;28;20201;-68